Terminal Aerodrome Forecast
Issued by NWS Anchorage, AK

Home | Current Version | Previous Version | Text Only | Print | Product List | Glossary On
Versions: 1 2 3 4 5 6 7 8 9 10 11 12 13 14 15 16 17 18 19 20 21 22 23 24 25 26 27 28 29 30 31 32 33 34 35 36
527
FTAK31 PANC 250540
TAFANC
TAF
PANC 250540Z 2506/2612 29008KT P6SM FEW035 SCT045 BKN060
      TEMPO 2506/2509 BKN045
     FM250900 16006KT P6SM BKN040
     FM252100 23006KT P6SM SCT045 BKN060=

USA.gov is the U.S. government's official web portal to all federal, state and local government web resources and services.